Time;durP1;ratioP1;P1;durP2;ratioP2;P2;SDS_P1;SDS_P2;PMS_P1;PMS_P2;Temp;Humidity;BMP_temperature;BMP_pressure;BME280_temperature;BME280_humidity;BME280_pressure;Samples;Min_cycle;Max_cycle;Signal;HPM_P1;HPM_P2
2023/04/10 00:01:00;;;;;;;12.20;7.90;;;;;;;10.11;63.90;102033.38;5035838;28;20109;-63
2023/04/10 00:03:26;;;;;;;9.98;7.13;;;;;;;9.99;64.54;102028.59;5035770;28;20029;-63
2023/04/10 00:05:53;;;;;;;13.13;7.70;;;;;;;9.93;64.51;102022.22;5035902;28;20140;-62
2023/04/10 00:08:21;;;;;;;12.95;7.85;;;;;;;9.94;64.70;102011.72;5035411;28;20034;-62
2023/04/10 00:10:47;;;;;;;9.65;7.13;;;;;;;9.91;65.02;102002.78;5035429;28;20493;-62
2023/04/10 00:13:14;;;;;;;11.20;7.50;;;;;;;9.87;65.18;102006.19;5035735;28;20056;-62
2023/04/10 00:15:39;;;;;;;10.60;6.70;;;;;;;9.89;64.72;101997.47;5035257;28;20037;-62
2023/04/10 00:18:05;;;;;;;12.20;7.82;;;;;;;9.90;64.71;101991.34;5034157;28;20033;-61
2023/04/10 00:20:30;;;;;;;10.73;7.38;;;;;;;9.90;65.07;101987.81;5035654;28;20037;-62
2023/04/10 00:22:56;;;;;;;11.77;7.57;;;;;;;9.87;65.51;101999.16;5035549;28;20030;-62
2023/04/10 00:25:22;;;;;;;9.85;7.13;;;;;;;9.87;64.73;101985.06;5034316;28;20030;-63
2023/04/10 00:27:47;;;;;;;10.15;7.40;;;;;;;9.84;65.12;101977.03;5035464;28;20108;-63
2023/04/10 00:30:13;;;;;;;14.68;7.57;;;;;;;9.88;64.76;101976.28;5035181;28;20497;-63
2023/04/10 00:32:38;;;;;;;10.30;7.45;;;;;;;9.85;64.67;101977.09;5035194;28;20017;-62
2023/04/10 00:35:04;;;;;;;11.82;7.50;;;;;;;9.82;64.96;101977.00;5035147;28;20036;-62
2023/04/10 00:37:30;;;;;;;10.63;7.22;;;;;;;9.75;65.55;101965.34;5035020;28;20053;-63
2023/04/10 00:39:55;;;;;;;10.90;7.28;;;;;;;9.77;65.27;101963.66;5034892;28;20044;-62
2023/04/10 00:42:21;;;;;;;12.70;7.65;;;;;;;9.81;65.21;101967.28;5034965;28;20025;-63
2023/04/10 00:44:46;;;;;;;11.15;7.30;;;;;;;9.85;64.95;101965.63;5034816;28;20017;-63
2023/04/10 00:47:13;;;;;;;10.73;7.32;;;;;;;9.77;64.81;101950.47;5033701;28;20026;-62
2023/04/10 00:49:39;;;;;;;10.88;7.90;;;;;;;9.73;64.97;101955.59;5033620;28;20041;-64
2023/04/10 00:52:05;;;;;;;11.95;7.60;;;;;;;9.69;64.99;101954.59;5034932;28;20168;-62
2023/04/10 00:54:30;;;;;;;11.27;7.50;;;;;;;9.63;65.44;101953.47;5034734;28;20041;-62
2023/04/10 00:56:57;;;;;;;12.32;7.32;;;;;;;9.60;65.80;101958.69;5034737;28;20069;-62
2023/04/10 00:59:23;;;;;;;10.65;7.35;;;;;;;9.67;65.09;101955.38;5034638;28;20034;-62
2023/04/10 01:01:48;;;;;;;12.15;7.13;;;;;;;9.66;64.96;101957.13;5034578;28;20372;-62
2023/04/10 01:04:15;;;;;;;9.07;7.00;;;;;;;9.61;65.52;101963.13;5033311;28;20068;-62
2023/04/10 01:07:02;;;;;;;10.13;7.07;;;;;;;9.62;64.99;101952.59;5034849;28;20175;-62
2023/04/10 01:09:47;;;;;;;10.38;7.43;;;;;;;9.63;65.19;101950.84;5034224;28;20041;-62
2023/04/10 01:12:27;;;;;;;10.43;7.28;;;;;;;9.59;64.86;101954.22;5034664;28;20068;-62
2023/04/10 01:15:01;;;;;;;12.65;7.35;;;;;;;9.54;65.20;101948.81;5034407;28;20021;-62
2023/04/10 01:17:29;;;;;;;10.02;7.20;;;;;;;9.51;65.59;101946.09;5034353;28;20056;-62
2023/04/10 01:20:07;;;;;;;10.63;7.60;;;;;;;9.52;65.13;101942.59;5034447;28;20025;-62
2023/04/10 01:22:36;;;;;;;10.80;7.40;;;;;;;9.52;64.96;101938.22;5034265;28;20029;-63
2023/04/10 01:25:27;;;;;;;11.23;6.97;;;;;;;9.53;65.51;101936.47;5034163;28;20033;-62
2023/04/10 01:28:05;;;;;;;9.50;6.82;;;;;;;9.49;65.55;101939.84;5032892;28;20025;-62
2023/04/10 01:30:34;;;;;;;10.27;7.13;;;;;;;9.47;65.76;101944.19;5034127;28;20056;-62
2023/04/10 01:33:00;;;;;;;10.10;7.38;;;;;;;9.47;65.67;101934.53;5033947;28;20057;-62
2023/04/10 01:35:29;;;;;;;10.93;7.60;;;;;;;9.41;65.95;101936.97;5033789;28;20037;-62
2023/04/10 01:37:56;;;;;;;13.50;7.40;;;;;;;9.42;65.98;101937.84;5033894;28;20029;-62
2023/04/10 01:40:25;;;;;;;10.18;6.78;;;;;;;9.39;65.96;101938.66;5033865;28;20025;-62
2023/04/10 01:42:54;;;;;;;10.52;7.15;;;;;;;9.37;66.32;101936.81;5033894;28;20018;-62
2023/04/10 01:45:23;;;;;;;10.88;7.30;;;;;;;9.35;66.07;101934.13;5033880;28;20021;-62
2023/04/10 01:47:50;;;;;;;10.82;6.75;;;;;;;9.35;66.20;101934.13;5033739;28;20398;-63
2023/04/10 01:50:16;;;;;;;11.75;7.45;;;;;;;9.37;66.49;101928.91;5033995;28;20048;-62
2023/04/10 01:52:43;;;;;;;9.50;7.00;;;;;;;9.38;66.55;101926.31;5033721;28;20029;-62
2023/04/10 01:55:09;;;;;;;10.40;7.38;;;;;;;9.36;66.34;101920.09;5033801;28;20021;-62
2023/04/10 01:57:35;;;;;;;11.77;7.88;;;;;;;9.36;66.73;101913.91;5032292;28;20132;-62
2023/04/10 02:00:02;;;;;;;10.30;7.15;;;;;;;9.33;66.38;101914.69;4999651;28;20037;-62
2023/04/10 02:02:31;;;;;;;11.70;7.68;;;;;;;9.25;66.98;101906.56;5033731;28;20423;-62
2023/04/10 02:04:56;;;;;;;10.93;6.97;;;;;;;9.23;66.95;101902.97;5033475;28;20021;-62
2023/04/10 02:07:35;;;;;;;9.82;6.95;;;;;;;9.22;66.98;101903.81;5033445;28;20032;-62
2023/04/10 02:10:36;;;;;;;13.00;7.13;;;;;;;9.22;67.09;101889.72;5032976;28;20077;-62
2023/04/10 02:13:06;;;;;;;15.30;7.50;;;;;;;9.14;67.45;101894.75;5023009;28;20368;-62
2023/04/10 02:15:31;;;;;;;10.82;7.30;;;;;;;9.15;66.95;101885.97;5033308;28;20486;-62
2023/04/10 02:18:03;;;;;;;12.85;7.50;;;;;;;9.11;67.31;101889.38;5033354;28;20029;-62
2023/04/10 02:20:31;;;;;;;10.23;7.13;;;;;;;9.05;67.37;101886.53;5033159;28;20475;-62
2023/04/10 02:23:01;;;;;;;10.82;7.32;;;;;;;8.98;67.64;101888.06;5033525;28;20117;-62
2023/04/10 02:25:26;;;;;;;10.98;7.07;;;;;;;8.97;67.47;101885.38;5033329;28;20037;-62
2023/04/10 02:27:52;;;;;;;10.55;6.97;;;;;;;8.96;67.78;101876.56;5031791;28;20028;-62
2023/04/10 02:30:17;;;;;;;9.82;7.07;;;;;;;9.00;67.80;101878.47;5033433;28;20037;-64
2023/04/10 02:32:43;;;;;;;10.75;7.47;;;;;;;9.00;67.65;101867.03;5033078;28;20434;-62
2023/04/10 02:35:08;;;;;;;9.70;7.38;;;;;;;8.97;67.68;101874.84;5033037;28;20025;-61
2023/04/10 02:37:34;;;;;;;11.73;7.47;;;;;;;8.93;67.82;101878.22;5033071;28;20469;-61
2023/04/10 02:40:00;;;;;;;10.73;7.55;;;;;;;8.94;67.67;101872.09;5032526;28;20042;-64
2023/04/10 02:42:27;;;;;;;13.07;7.93;;;;;;;8.92;67.97;101869.41;5033151;28;20528;-62
2023/04/10 02:44:52;;;;;;;10.02;7.20;;;;;;;8.95;67.46;101872.16;5032733;28;20112;-62
2023/04/10 02:47:17;;;;;;;10.63;7.18;;;;;;;8.96;67.89;101875.69;5033209;28;20172;-62
2023/04/10 02:49:43;;;;;;;10.15;7.18;;;;;;;8.93;67.61;101879.09;5037048;28;20479;-62
2023/04/10 02:52:08;;;;;;;10.65;7.38;;;;;;;8.90;68.00;101876.34;5036982;28;20030;-62
2023/04/10 02:54:34;;;;;;;12.02;7.40;;;;;;;8.90;67.26;101873.72;5036831;28;20044;-62
2023/04/10 02:57:00;;;;;;;12.55;7.50;;;;;;;8.91;67.13;101874.63;5037043;28;20057;-62
2023/04/10 02:59:26;;;;;;;11.23;7.47;;;;;;;8.86;67.39;101877.09;5058658;22;20037;-69
2023/04/10 03:01:52;;;;;;;10.35;7.70;;;;;;;8.83;67.49;101865.56;5019091;28;20282;-69
2023/04/10 03:04:18;;;;;;;10.50;7.43;;;;;;;8.80;68.38;101868.97;5036847;28;20128;-67
2023/04/10 03:06:43;;;;;;;13.85;7.47;;;;;;;8.82;68.21;101872.56;5036849;28;20100;-67
2023/04/10 03:09:09;;;;;;;10.90;7.40;;;;;;;8.80;68.00;101866.34;5036453;28;20486;-67
2023/04/10 03:11:34;;;;;;;10.20;7.22;;;;;;;8.84;68.02;101873.53;5036782;28;20030;-67
2023/04/10 03:14:00;;;;;;;10.55;7.13;;;;;;;8.87;67.89;101880.66;5036543;28;20026;-69
2023/04/10 03:16:25;;;;;;;11.77;7.85;;;;;;;8.88;67.28;101878.06;5036537;28;20067;-68
2023/04/10 03:18:52;;;;;;;11.32;7.63;;;;;;;8.87;67.51;101888.56;5036498;28;20137;-68
2023/04/10 03:21:17;;;;;;;11.88;7.78;;;;;;;8.86;67.63;101885.00;5036618;28;20022;-68
2023/04/10 03:23:43;;;;;;;12.57;8.20;;;;;;;8.87;67.43;101880.66;5036132;28;20037;-68
2023/04/10 03:26:08;;;;;;;11.10;7.45;;;;;;;8.88;68.20;101879.78;5036336;28;20029;-68
2023/04/10 03:28:35;;;;;;;11.35;7.63;;;;;;;8.93;68.06;101883.47;5036155;28;20474;-68
2023/04/10 03:31:01;;;;;;;10.70;7.65;;;;;;;8.91;67.46;101874.63;5036250;28;20363;-68
2023/04/10 03:33:27;;;;;;;12.20;8.02;;;;;;;8.94;68.17;101880.00;5036235;28;20049;-68
2023/04/10 03:35:52;;;;;;;10.52;7.28;;;;;;;8.96;67.16;101878.31;5036184;28;20049;-68
2023/04/10 03:38:18;;;;;;;11.65;8.10;;;;;;;8.93;67.19;101870.31;5036037;28;20029;-68
2023/04/10 03:40:43;;;;;;;13.18;7.88;;;;;;;8.91;67.72;101866.72;5035959;28;20041;-68
2023/04/10 03:43:08;;;;;;;13.00;8.23;;;;;;;8.85;67.83;101855.97;5035984;28;20026;-68
2023/04/10 03:45:34;;;;;;;11.45;7.70;;;;;;;8.87;67.25;101855.19;5035755;28;20482;-68
2023/04/10 03:47:59;;;;;;;11.77;8.18;;;;;;;8.87;67.90;101862.19;5035796;28;20025;-68
2023/04/10 03:50:24;;;;;;;10.23;7.78;;;;;;;8.87;67.42;101860.47;5035882;28;20021;-68
2023/04/10 03:52:50;;;;;;;11.43;8.02;;;;;;;8.84;67.87;101851.53;5035892;28;20032;-68
2023/04/10 03:55:19;;;;;;;11.23;7.68;;;;;;;8.83;67.69;101849.75;5035610;28;20030;-68
2023/04/10 03:57:45;;;;;;;12.52;8.38;;;;;;;8.76;68.08;101848.63;5035889;28;20034;-68
2023/04/10 04:00:15;;;;;;;11.18;7.95;;;;;;;8.80;67.90;101842.63;5014400;28;20046;-68
2023/04/10 04:02:40;;;;;;;10.73;7.93;;;;;;;8.76;67.91;101840.75;5015870;28;20038;-68
2023/04/10 04:05:06;;;;;;;11.48;8.52;;;;;;;8.68;67.87;101848.38;5015879;28;20132;-68
2023/04/10 04:07:32;;;;;;;11.60;8.18;;;;;;;8.70;68.38;101844.06;5015785;28;20041;-68
2023/04/10 04:09:57;;;;;;;11.27;8.00;;;;;;;8.71;67.42;101839.69;5015856;28;20036;-68
2023/04/10 04:12:23;;;;;;;11.40;7.85;;;;;;;8.64;67.58;101837.69;5015865;28;20494;-68
2023/04/10 04:14:48;;;;;;;10.27;7.22;;;;;;;8.64;68.78;101840.31;5015359;28;20061;-68
2023/04/10 04:17:14;;;;;;;12.23;8.13;;;;;;;8.65;68.01;101834.19;5015934;28;20479;-68
2023/04/10 04:19:39;;;;;;;10.50;7.88;;;;;;;8.64;67.81;101830.66;5015573;28;20042;-68
2023/04/10 04:22:04;;;;;;;11.75;8.43;;;;;;;8.65;67.82;101824.56;5015434;28;20029;-68
2023/04/10 04:24:30;;;;;;;10.63;7.85;;;;;;;8.69;68.31;101825.56;5015449;28;20014;-68
2023/04/10 04:26:56;;;;;;;12.10;8.07;;;;;;;8.71;67.69;101824.78;5015809;28;20033;-68
2023/04/10 04:29:21;;;;;;;13.55;8.20;;;;;;;8.73;67.70;101824.81;5015770;28;20026;-68
2023/04/10 04:31:46;;;;;;;13.70;8.63;;;;;;;8.73;67.18;101822.19;5015328;28;20021;-68
2023/04/10 04:34:12;;;;;;;15.05;7.88;;;;;;;8.72;67.49;101813.38;5015445;28;20033;-68
2023/04/10 04:36:37;;;;;;;12.52;7.97;;;;;;;8.70;67.23;101816.81;5015230;28;20034;-68
2023/04/10 04:39:03;;;;;;;10.20;7.57;;;;;;;8.64;67.68;101819.22;5013858;28;20146;-68
2023/04/10 04:41:31;;;;;;;12.13;8.13;;;;;;;8.63;67.36;101817.44;5015149;28;20029;-68
2023/04/10 04:44:00;;;;;;;11.35;8.18;;;;;;;8.56;67.94;101812.81;5015159;28;20033;-68
2023/04/10 04:46:26;;;;;;;13.80;7.97;;;;;;;8.53;68.01;101817.13;5015257;28;20056;-69
2023/04/10 04:48:51;;;;;;;12.18;8.05;;;;;;;8.53;68.00;101808.34;5014049;28;20539;-69
2023/04/10 04:51:16;;;;;;;11.68;8.00;;;;;;;8.55;67.37;101813.66;5014952;28;20109;-69
2023/04/10 04:53:42;;;;;;;12.43;8.02;;;;;;;8.51;67.32;101808.28;5014922;28;20092;-69
2023/04/10 04:56:08;;;;;;;10.45;7.32;;;;;;;8.47;67.57;101810.75;5015062;28;20029;-69
2023/04/10 04:58:33;;;;;;;11.70;8.15;;;;;;;8.40;67.46;101806.13;5015137;28;20383;-69
2023/04/10 05:00:59;;;;;;;11.60;7.68;;;;;;;8.32;67.69;101807.56;5026564;28;20102;-69
2023/04/10 05:03:25;;;;;;;11.93;8.15;;;;;;;8.28;68.64;101806.56;5034799;28;20153;-68
2023/04/10 05:05:50;;;;;;;11.48;7.80;;;;;;;8.21;68.11;101805.44;5034508;28;20433;-69
2023/04/10 05:08:16;;;;;;;10.85;7.60;;;;;;;8.20;68.56;101802.75;5034609;28;20152;-69
2023/04/10 05:10:41;;;;;;;13.05;7.70;;;;;;;8.21;67.85;101797.53;5033777;28;20497;-69
2023/04/10 05:13:06;;;;;;;15.43;7.95;;;;;;;8.22;68.23;101794.06;5034388;28;20174;-69
2023/04/10 05:15:32;;;;;;;12.60;8.23;;;;;;;8.22;68.65;101791.44;5016164;28;20482;-69
2023/04/10 05:17:57;;;;;;;11.18;7.85;;;;;;;8.13;68.71;101788.47;5034232;28;20037;-69
2023/04/10 05:20:23;;;;;;;14.30;7.78;;;;;;;8.09;68.61;101788.28;5034157;28;20381;-69
2023/04/10 05:22:49;;;;;;;10.52;7.13;;;;;;;8.11;69.02;101781.38;5034126;28;20522;-69
2023/04/10 05:25:14;;;;;;;11.65;7.97;;;;;;;8.14;68.39;101782.38;5033904;28;20029;-69
2023/04/10 05:27:40;;;;;;;10.30;7.60;;;;;;;8.13;68.29;101785.81;5034078;28;20165;-69
2023/04/10 05:30:06;;;;;;;11.07;7.47;;;;;;;8.14;68.44;101789.38;5033986;28;20108;-69
2023/04/10 05:32:31;;;;;;;11.38;7.28;;;;;;;8.11;68.44;101777.00;5034173;28;20037;-69
2023/04/10 05:34:57;;;;;;;10.70;7.35;;;;;;;8.16;68.55;101787.69;5016204;28;20116;-69
2023/04/10 05:37:22;;;;;;;12.13;7.53;;;;;;;8.20;68.70;101793.09;5033908;28;20116;-69
2023/04/10 05:39:47;;;;;;;11.63;7.55;;;;;;;8.20;68.54;101793.09;5033776;28;20060;-69
2023/04/10 05:42:13;;;;;;;10.60;7.53;;;;;;;8.20;69.46;101785.22;5033853;28;20650;-69
2023/04/10 05:44:38;;;;;;;10.45;7.28;;;;;;;8.20;69.04;101789.59;5015935;28;20075;-69
2023/04/10 05:47:04;;;;;;;11.63;7.63;;;;;;;8.20;68.86;101789.59;5033635;28;20037;-69
2023/04/10 05:49:29;;;;;;;9.80;7.10;;;;;;;8.25;68.57;101785.38;5033740;28;20033;-69
2023/04/10 05:51:55;;;;;;;10.40;7.40;;;;;;;8.33;68.62;101788.28;5033633;28;20120;-69
2023/04/10 05:54:20;;;;;;;10.52;7.47;;;;;;;8.31;68.85;101790.88;5033440;28;20108;-69
2023/04/10 05:56:45;;;;;;;11.93;7.20;;;;;;;8.35;68.28;101789.22;5033688;28;20025;-69
2023/04/10 05:59:12;;;;;;;10.07;7.10;;;;;;;8.40;68.49;101785.94;5033929;28;20474;-70
2023/04/10 06:01:38;;;;;;;10.63;7.13;;;;;;;8.45;68.35;101789.63;5034097;28;20042;-69
2023/04/10 06:04:04;;;;;;;9.07;6.65;;;;;;;8.51;68.67;101787.19;5033650;28;20048;-69
2023/04/10 06:06:30;;;;;;;10.02;6.95;;;;;;;8.59;68.10;101784.84;5033395;28;20391;-69
2023/04/10 06:08:55;;;;;;;10.95;6.97;;;;;;;8.67;67.45;101785.09;5033188;28;20080;-69
2023/04/10 06:11:21;;;;;;;9.93;7.20;;;;;;;8.75;67.54;101792.41;5033302;28;20056;-69
2023/04/10 06:13:46;;;;;;;10.55;7.40;;;;;;;8.76;68.05;101788.94;5033243;28;20030;-70
2023/04/10 06:16:14;;;;;;;10.77;7.25;;;;;;;8.83;68.07;101784.75;5032946;28;20128;-69
2023/04/10 06:18:40;;;;;;;10.25;7.18;;;;;;;8.88;67.91;101790.19;5033148;28;20068;-69
2023/04/10 06:21:06;;;;;;;9.88;6.90;;;;;;;8.95;67.51;101784.25;5015669;28;20049;-69
2023/04/10 06:23:31;;;;;;;10.38;7.15;;;;;;;9.02;67.26;101783.59;5032616;28;20047;-68
2023/04/10 06:25:57;;;;;;;10.35;6.97;;;;;;;9.07;67.73;101776.72;5033070;28;20025;-70
2023/04/10 06:28:22;;;;;;;10.02;6.95;;;;;;;9.15;67.91;101775.25;5015358;28;20038;-69
2023/04/10 06:30:48;;;;;;;10.27;7.20;;;;;;;9.14;66.93;101776.09;5033045;28;20026;-69
2023/04/10 06:33:13;;;;;;;10.65;7.30;;;;;;;9.15;67.85;101766.44;5032861;28;20079;-70
2023/04/10 06:35:38;;;;;;;12.00;7.68;;;;;;;9.14;66.64;101765.53;5033219;28;20108;-69
2023/04/10 06:38:04;;;;;;;10.68;7.55;;;;;;;9.15;66.73;101764.69;5032982;28;20479;-69
2023/04/10 06:40:29;;;;;;;10.30;7.07;;;;;;;9.19;66.21;101753.41;5032899;28;20029;-68
2023/04/10 06:42:55;;;;;;;10.05;7.60;;;;;;;9.22;67.11;101760.53;5032919;28;20021;-68
2023/04/10 06:45:21;;;;;;;9.82;7.03;;;;;;;9.28;68.01;101753.66;5032595;28;20022;-69
2023/04/10 06:47:46;;;;;;;10.75;7.70;;;;;;;9.40;67.48;101741.72;5032819;28;20021;-68
2023/04/10 06:50:12;;;;;;;10.93;7.55;;;;;;;9.47;66.76;101735.78;5032783;28;20033;-69
2023/04/10 06:52:37;;;;;;;10.60;6.80;;;;;;;9.52;64.93;101735.06;5015132;28;20033;-69
2023/04/10 06:55:03;;;;;;;11.07;7.20;;;;;;;9.59;65.62;101730.84;5032805;28;20029;-69
2023/04/10 06:57:29;;;;;;;10.13;7.43;;;;;;;9.61;65.11;101729.16;5032911;28;20032;-69
2023/04/10 06:59:55;;;;;;;10.75;7.50;;;;;;;9.66;65.12;101718.72;5014763;28;20072;-69
2023/04/10 07:02:20;;;;;;;11.45;7.88;;;;;;;9.68;65.47;101704.72;5032961;28;20080;-69
2023/04/10 07:04:45;;;;;;;10.98;7.63;;;;;;;9.75;64.66;101716.34;5032702;28;20033;-69
2023/04/10 07:07:12;;;;;;;12.30;7.95;;;;;;;9.80;64.85;101709.44;5032691;28;20022;-69
2023/04/10 07:09:38;;;;;;;10.38;7.65;;;;;;;9.84;65.04;101713.94;5014676;28;20034;-69
2023/04/10 07:12:04;;;;;;;10.52;7.70;;;;;;;9.86;65.09;101708.72;5032572;28;20474;-69
2023/04/10 07:14:33;;;;;;;10.88;7.85;;;;;;;9.91;65.21;101702.72;5032360;28;20545;-69
2023/04/10 07:16:58;;;;;;;11.57;8.18;;;;;;;9.97;64.61;101697.59;5032988;28;20072;-69
2023/04/10 07:19:24;;;;;;;10.73;7.32;;;;;;;10.04;64.76;101696.03;5033875;28;20033;-69
2023/04/10 07:21:50;;;;;;;10.55;7.57;;;;;;;10.08;64.04;101692.63;5033190;28;20470;-69
2023/04/10 07:24:16;;;;;;;11.73;7.82;;;;;;;10.13;64.01;101692.72;5032485;28;20466;-69
2023/04/10 07:26:42;;;;;;;12.35;7.80;;;;;;;10.18;63.49;101681.41;5032639;28;20025;-69
2023/04/10 07:29:08;;;;;;;10.65;7.70;;;;;;;10.23;64.15;101677.13;5032337;28;20026;-69
2023/04/10 07:31:33;;;;;;;10.75;7.35;;;;;;;10.30;63.52;101680.00;5032584;28;20044;-69
2023/04/10 07:33:59;;;;;;;9.85;7.05;;;;;;;10.36;63.14;101669.56;5033708;28;20026;-69
2023/04/10 07:36:25;;;;;;;10.13;7.22;;;;;;;10.38;61.75;101670.50;5036090;28;20382;-69
2023/04/10 07:38:51;;;;;;;11.20;6.80;;;;;;;10.41;62.27;101666.19;5036203;28;20045;-70
2023/04/10 07:41:17;;;;;;;10.10;7.47;;;;;;;10.52;61.92;101669.09;5036284;28;20025;-69
2023/04/10 07:43:42;;;;;;;10.70;7.55;;;;;;;10.57;61.16;101661.25;5036101;28;20037;-70
2023/04/10 07:46:07;;;;;;;9.52;7.10;;;;;;;10.68;61.06;101657.13;5035808;28;20053;-69
2023/04/10 07:48:33;;;;;;;10.90;7.32;;;;;;;10.78;60.99;101649.44;5035951;28;20379;-69
2023/04/10 07:50:58;;;;;;;11.23;7.22;;;;;;;10.97;61.14;101644.59;5036119;28;20036;-69
2023/04/10 07:53:23;;;;;;;8.85;6.78;;;;;;;11.20;60.47;101645.06;5035828;28;20363;-69
2023/04/10 07:55:49;;;;;;;11.70;7.45;;;;;;;11.38;58.39;101640.13;5035681;28;20101;-70
2023/04/10 07:58:15;;;;;;;9.93;7.03;;;;;;;11.59;57.47;101642.31;5035712;28;20045;-67
2023/04/10 08:00:40;;;;;;;8.80;6.68;;;;;;;11.81;56.72;101633.03;5035492;28;20046;-70
2023/04/10 08:03:06;;;;;;;10.80;7.00;;;;;;;11.95;56.05;101628.03;5035601;28;20021;-71
2023/04/10 08:05:32;;;;;;;11.07;6.82;;;;;;;12.14;55.31;101635.41;5035648;28;20037;-70
2023/04/10 08:07:58;;;;;;;10.00;6.88;;;;;;;12.31;55.13;101616.25;5035396;28;20101;-71
2023/04/10 08:10:23;;;;;;;9.98;6.70;;;;;;;12.49;56.35;101617.44;5035391;28;20017;-70
2023/04/10 08:12:49;;;;;;;8.13;6.15;;;;;;;12.63;54.55;101619.38;5035174;28;20079;-70
2023/04/10 08:15:15;;;;;;;8.88;6.68;;;;;;;12.71;55.50;101612.44;5035367;28;20022;-69
2023/04/10 08:17:40;;;;;;;9.50;6.57;;;;;;;12.69;53.95;101609.78;5035600;28;20032;-69
2023/04/10 08:20:06;;;;;;;7.82;6.25;;;;;;;12.66;53.93;101612.38;5035374;28;20029;-70
2023/04/10 08:22:32;;;;;;;9.25;7.47;;;;;;;12.57;54.00;101606.94;5035268;28;20108;-68
2023/04/10 08:24:57;;;;;;;8.68;6.45;;;;;;;12.55;53.56;101608.69;5035288;28;20502;-69
2023/04/10 08:27:22;;;;;;;7.97;6.00;;;;;;;12.47;54.95;101611.22;5017806;28;20026;-69
2023/04/10 08:29:48;;;;;;;9.65;7.10;;;;;;;12.46;55.67;101600.56;5034727;28;20556;-69
2023/04/10 08:32:13;;;;;;;8.52;6.50;;;;;;;12.57;56.69;101608.72;5034752;28;20479;-70
2023/04/10 08:34:39;;;;;;;9.82;6.82;;;;;;;12.61;55.48;101603.47;5035434;28;20040;-69
2023/04/10 08:37:08;;;;;;;9.27;7.03;;;;;;;12.61;54.75;101608.78;5035319;28;20025;-71
2023/04/10 08:39:37;;;;;;;7.85;6.13;;;;;;;12.65;55.57;101602.66;5035177;28;20032;-69
2023/04/10 08:42:04;;;;;;;8.93;6.53;;;;;;;12.75;56.35;101607.19;5034973;28;20032;-70
2023/04/10 08:44:30;;;;;;;9.82;6.60;;;;;;;12.75;54.48;101595.69;5034600;28;20032;-70
2023/04/10 08:46:58;;;;;;;9.55;6.55;;;;;;;12.68;54.29;101592.09;5034173;28;20025;-69
2023/04/10 08:49:30;;;;;;;9.82;6.80;;;;;;;12.72;55.70;101591.28;5034689;28;20071;-70
2023/04/10 08:51:58;;;;;;;9.32;6.43;;;;;;;12.78;55.77;101594.00;5033444;28;20025;-70
2023/04/10 08:54:34;;;;;;;11.05;6.68;;;;;;;12.79;55.74;101582.50;5034026;28;20132;-70
2023/04/10 08:57:00;;;;;;;8.55;6.25;;;;;;;12.86;56.30;101588.78;5034627;28;20441;-69
2023/04/10 08:59:30;;;;;;;8.25;6.55;;;;;;;12.93;55.29;101593.31;5034628;28;20576;-71
2023/04/10 09:01:56;;;;;;;9.57;6.47;;;;;;;12.93;54.63;101589.75;5034324;28;20132;-68
2023/04/10 09:04:23;;;;;;;8.70;6.65;;;;;;;12.88;55.36;101583.50;5034232;28;20029;-68
2023/04/10 09:06:49;;;;;;;8.25;6.50;;;;;;;12.90;55.56;101603.88;5034704;28;20022;-68
2023/04/10 09:09:14;;;;;;;8.93;6.63;;;;;;;12.92;55.25;101591.50;5033736;28;20033;-68
2023/04/10 09:11:55;;;;;;;9.38;6.43;;;;;;;12.99;55.92;101579.25;5034163;28;20501;-67
2023/04/10 09:14:25;;;;;;;8.30;6.30;;;;;;;13.00;56.26;101576.59;5034558;28;20049;-68
2023/04/10 09:16:53;;;;;;;10.00;6.53;;;;;;;13.05;55.28;101574.00;5034359;28;20022;-66
2023/04/10 09:19:32;;;;;;;7.97;6.38;;;;;;;13.12;55.40;101573.19;5034240;28;20037;-67
2023/04/10 09:21:58;;;;;;;7.25;6.00;;;;;;;13.18;55.44;101581.22;5034448;28;20121;-66
2023/04/10 09:24:24;;;;;;;8.57;6.32;;;;;;;13.17;55.71;101571.50;5034084;28;20025;-65
2023/04/10 09:26:50;;;;;;;10.10;6.68;;;;;;;13.19;55.42;101571.50;5034219;28;20026;-61
2023/04/10 09:29:18;;;;;;;9.25;6.40;;;;;;;13.27;55.34;101567.19;5014838;28;20076;-66
2023/04/10 09:31:44;;;;;;;8.50;6.80;;;;;;;13.29;55.14;101557.50;5034612;28;20163;-64
2023/04/10 09:34:22;;;;;;;7.80;6.18;;;;;;;13.27;55.35;101552.19;5034560;28;20450;-66
2023/04/10 09:36:55;;;;;;;10.70;6.47;;;;;;;13.34;55.81;101537.22;5034436;28;20479;-70
2023/04/10 09:39:31;;;;;;;8.32;6.80;;;;;;;13.34;55.29;101538.97;5033963;28;20080;-68
2023/04/10 09:41:57;;;;;;;7.47;5.82;;;;;;;13.37;55.17;101534.59;5033932;28;20368;-67
2023/04/10 09:44:32;;;;;;;8.45;6.57;;;;;;;13.38;55.77;101517.78;5034001;28;20406;-66
2023/04/10 09:47:14;;;;;;;8.40;6.45;;;;;;;13.43;55.88;101508.09;5034079;28;20056;-67
2023/04/10 09:49:47;;;;;;;7.70;6.07;;;;;;;13.48;56.80;101509.03;5033744;28;20049;-67
2023/04/10 09:52:18;;;;;;;9.05;5.75;;;;;;;13.55;56.29;101496.72;5033659;28;20030;-67
2023/04/10 09:54:44;;;;;;;7.43;5.78;;;;;;;13.58;55.49;101493.22;5033759;28;20107;-66
2023/04/10 09:57:14;;;;;;;8.38;6.53;;;;;;;13.58;56.18;101496.75;5033410;28;20109;-67
2023/04/10 09:59:43;;;;;;;7.57;6.03;;;;;;;13.62;55.92;101494.97;5033646;28;20376;-67
2023/04/10 10:02:10;;;;;;;7.88;6.18;;;;;;;13.62;55.64;101495.91;5033366;28;20380;-67
2023/04/10 10:04:36;;;;;;;8.35;6.10;;;;;;;13.60;54.74;101494.09;5033769;28;20052;-66
2023/04/10 10:07:03;;;;;;;8.52;6.57;;;;;;;13.63;54.87;101496.78;5033160;28;20061;-68
2023/04/10 10:09:28;;;;;;;7.35;6.32;;;;;;;13.70;55.15;101494.19;5033214;28;20061;-68
2023/04/10 10:11:54;;;;;;;8.00;6.28;;;;;;;13.77;54.49;101490.69;5015636;28;20072;-68
2023/04/10 10:14:21;;;;;;;9.18;6.13;;;;;;;13.87;55.27;101482.78;5033328;28;20053;-67
2023/04/10 10:16:55;;;;;;;9.57;5.57;;;;;;;13.97;55.26;101488.19;5032872;28;20387;-68
2023/04/10 10:19:30;;;;;;;7.70;5.68;;;;;;;14.13;55.53;101482.97;5033341;28;20367;-68
2023/04/10 10:21:58;;;;;;;9.25;6.10;;;;;;;14.20;54.42;101476.81;5033027;28;20112;-68
2023/04/10 10:24:25;;;;;;;12.13;5.95;;;;;;;14.27;54.19;101454.72;5026642;28;20494;-65
2023/04/10 10:26:54;;;;;;;8.75;5.93;;;;;;;14.33;54.65;101461.81;5033015;28;20548;-66
2023/04/10 10:29:22;;;;;;;8.45;5.72;;;;;;;14.45;54.33;101459.22;5033268;28;20104;-66
2023/04/10 10:31:48;;;;;;;8.02;5.78;;;;;;;14.62;54.96;101446.03;5033076;28;20049;-68
2023/04/10 10:34:15;;;;;;;8.57;5.65;;;;;;;14.88;53.42;101447.00;5033024;28;20061;-65
2023/04/10 10:36:41;;;;;;;8.10;5.43;;;;;;;15.18;53.18;101445.31;5032944;28;20513;-66
2023/04/10 10:39:32;;;;;;;8.80;5.10;;;;;;;15.42;52.84;101431.13;5033071;28;20040;-65
2023/04/10 10:42:00;;;;;;;5.93;4.43;;;;;;;15.62;51.22;101432.00;5033241;28;20034;-65
2023/04/10 10:44:36;;;;;;;6.10;4.70;;;;;;;15.73;49.74;101429.38;5032328;28;20524;-66
2023/04/10 10:47:23;;;;;;;7.00;4.50;;;;;;;15.82;50.22;101420.47;5032872;28;20104;-66
2023/04/10 10:49:56;;;;;;;7.43;4.55;;;;;;;15.86;48.69;101427.56;5032921;28;20421;-67
2023/04/10 10:52:51;;;;;;;5.43;4.28;;;;;;;15.94;49.06;101410.69;5032842;28;20030;-66
2023/04/10 10:55:41;;;;;;;7.15;4.50;;;;;;;16.00;48.23;101407.97;5032935;28;20029;-66
2023/04/10 10:58:07;;;;;;;6.15;4.70;;;;;;;16.05;47.45;101428.41;5033105;28;20380;-66
2023/04/10 11:00:51;;;;;;;5.97;4.15;;;;;;;16.07;47.84;101399.97;5032694;28;20120;-66
2023/04/10 11:03:16;;;;;;;5.53;4.20;;;;;;;16.09;46.88;101400.84;5032740;28;20505;-66
2023/04/10 11:05:51;;;;;;;5.63;4.05;;;;;;;16.17;48.34;101383.94;5032723;28;20029;-65
2023/04/10 11:08:16;;;;;;;5.72;4.20;;;;;;;16.24;47.25;101399.03;5032914;28;20025;-66
2023/04/10 11:11:24;;;;;;;7.07;4.70;;;;;;;16.26;47.66;101389.22;5036458;28;20387;-66
2023/04/10 11:13:52;;;;;;;7.18;4.28;;;;;;;16.27;45.96;101385.69;5026040;28;20037;-67
2023/04/10 11:16:19;;;;;;;5.22;3.95;;;;;;;16.43;46.42;101383.81;5036422;28;20050;-66
2023/04/10 11:18:45;;;;;;;4.95;4.00;;;;;;;16.68;46.49;101378.38;5036659;28;20034;-66
2023/04/10 11:21:15;;;;;;;6.78;4.38;;;;;;;16.74;46.34;101367.69;5036399;28;20120;-66
2023/04/10 11:24:04;;;;;;;5.03;3.92;;;;;;;16.92;45.34;101364.91;5036669;28;20026;-66
2023/04/10 11:29:02;;;;;;;6.50;4.45;;;;;;;17.00;45.51;101346.13;5036262;28;20426;-65